Royal, IA

5:24 AM CDT on September 15, 2014 (GMT -0500)
Spencer Municipal | Change Station
CLOSE
Current Station
Airport
Location: Spencer,
Elevation: 1339 ft
Nearby Weather Stations

Elev 1339 ft 43.17 °N, 95.20 °W | Updated 31 minutes ago

Overcast
Overcast
50 °F
Feels Like 50 °F
N
13
Wind Variable Wind from NNE

Today
High -- | Low -- °F
--% Chance of Precip.
Yesterday
High -- | Low -- °F
Precip. -- in
7:00 AM 7:30 PM
Waning Gibbous, 57% visible
Pressure 30.14 in
Visibility 9.0 miles
Clouds Overcast 3800 ft
Dew Point 47 °F
Humidity 89%
Rainfall 0.01 in
Snow Depth Not available.
UV 0 out of 12
Pollen 5.40 out of 12
Air Quality Not available.
Flu Activity Not available.
METAR KSPW 150953Z AUTO 03011KT 9SM -RA OVC038 10/08 A3014 RMK AO2 SLP206 P0001 T01000083

More Conditions Fewer Conditions

Pressure 30.14 in
Visibility 9.0 miles
Clouds Overcast 3800 ft
Dew Point 47 °F
Humidity 89%
Rainfall 0.01 in
Snow Depth Not available.
UV 0 out of 12
Pollen 5.40 out of 12
Air Quality Not available.
Flu Activity Not available.
METAR KSPW 150953Z AUTO 03011KT 9SM -RA OVC038 10/08 A3014 RMK AO2 SLP206 P0001 T01000083

More Conditions Fewer Conditions

10-Day Weather Forecast

Almanac

Astronomy

Sep. 15, 2014 Rise Set
Actual Time 7:00 AM CDT 7:30 PM CDT
Civil Twilight 6:32 AM CDT 7:59 PM CDT
Nautical Twilight 5:58 AM CDT 8:32 PM CDT
Astronomical Twilight 5:23 AM CDT 9:07 PM CDT
Moon No Moon Rise 2:10 PM CDT
Length of Visible Light 13h 27m
Length of Day
12h 30m
Tomorrow will be 2m 54s shorter.
Waning Gibbous, 57% of the Moon is Illuminated
Today
Waning Gibbous
Sep 15
Last Quarter
Sep 24
New
Oct 1
First Quarter
Oct 8
Full

Today's Extremes

State Highs State Lows

Community

WunderPhotos

Upload Photos

1,753,428 photos uploaded!

WunderBlogs® & News

Nearby

Snow Depth

Station Depth Elevation
No new snow has been reported.

Earthquake Activity

City Distance Mag. Time & Date
No recent earthquake activity has been reported nearby.
Minimum magnitude displayed is 2.5.

Coastal Water Temperatures

Place Temperature
No Stations Reporting

Nearby Weather Stations